Armbrust, PA

11:30 AM EST on November 24, 2014 (GMT -0500)
Midway St. Clair | Change Station
CLOSE
Current Station
Personal Weather Station
Location: Greensburg, PA
Elevation: 1135 ft
Nearby Weather Stations
Active Advisory: Wind Advisory Active Notice: Public Information Statement

Elev 1135 ft 40.27 °N, 79.56 °W | Updated 4 seconds ago

Partly Cloudy
Partly Cloudy
69.8 °F
Feels Like 69.8 °F
N
10.0
Wind Variable Wind from SSE
Gusts 14.0 mph

Today
High -- | Low -- °F
--% Chance of Precip.
Yesterday
High -- | Low -- °F
Precip. -- in
7:14 AM 4:55 PM
Waxing Crescent, 6% visible
Pressure 29.49 in
Visibility 20.0 miles
Clouds Scattered Clouds 5000 ft
Dew Point 49 °F
Humidity 48%
Rainfall 0.25 in
Snow Depth Not available.
UV 2 out of 12
Pollen .10 out of 12
Air Quality Not available.
Flu Activity Not available.
METAR KLBE 241550Z 21015G25KT 20SM SCT050 20/08 A2949

More Conditions Fewer Conditions

Pressure 29.49 in
Visibility 20.0 miles
Clouds Scattered Clouds 5000 ft
Dew Point 49 °F
Humidity 48%
Rainfall 0.25 in
Snow Depth Not available.
UV 2 out of 12
Pollen .10 out of 12
Air Quality Not available.
Flu Activity Not available.
METAR KLBE 241550Z 21015G25KT 20SM SCT050 20/08 A2949

More Conditions Fewer Conditions

10-Day Weather Forecast

Almanac

Astronomy

Nov. 24, 2014 Rise Set
Actual Time
Civil Twilight
Nautical Twilight
Astronomical Twilight
Moon
Length of Visible Light
Length of Day
Tomorrow will be .
, % of the Moon is Illuminated

Today's Extremes

State Highs State Lows

Community

WunderPhotos

Upload Photos

1,773,366 photos uploaded!

WunderBlogs® & News

Nearby

Air Quality

  Air Quality AQ Index Pollutant
Not available.

Snow Depth

Station Depth Elevation

Earthquake Activity

City Distance Mag. Time & Date
Minimum magnitude displayed is 2.5.

Coastal Water Temperatures

Place Temperature

Nearby Weather Stations